Time;durP1;ratioP1;P1;durP2;ratioP2;P2;SDS_P1;SDS_P2;PMS_P1;PMS_P2;Temp;Humidity;BMP_temperature;BMP_pressure;BME280_temperature;BME280_humidity;BME280_pressure;Samples;Min_cycle;Max_cycle;Signal;HPM_P1;HPM_P2
2022/03/10 00:00:12;;;;;;;20.63;13.82;;;;;;;;;;5039651;28;20044;-68
2022/03/10 00:02:42;;;;;;;21.23;14.25;;;;;;;;;;5039178;28;20057;-68
2022/03/10 00:05:11;;;;;;;19.88;13.43;;;;;;;;;;5042441;28;20621;-68
2022/03/10 00:07:38;;;;;;;22.20;12.93;;;;;;;;;;5044715;28;20079;-68
2022/03/10 00:10:06;;;;;;;21.17;13.27;;;;;;;;;;5042148;28;20823;-68
2022/03/10 00:12:34;;;;;;;20.52;12.80;;;;;;;;;;5040846;28;20454;-69
2022/03/10 00:15:01;;;;;;;22.23;12.73;;;;;;;;;;5042662;28;20064;-69
2022/03/10 00:17:28;;;;;;;19.48;12.52;;;;;;;;;;5041208;28;20071;-68
2022/03/10 00:19:57;;;;;;;19.77;12.43;;;;;;;;;;5041075;28;20095;-68
2022/03/10 00:22:24;;;;;;;22.40;12.85;;;;;;;;;;5038590;28;20075;-69
2022/03/10 00:24:51;;;;;;;22.65;13.85;;;;;;;;;;5039548;28;20067;-69
2022/03/10 00:27:18;;;;;;;21.00;12.60;;;;;;;;;;5042518;28;20052;-69
2022/03/10 00:29:46;;;;;;;31.15;12.70;;;;;;;;;;5040284;28;20134;-68
2022/03/10 00:32:13;;;;;;;22.10;12.50;;;;;;;;;;5044444;28;20045;-68
2022/03/10 00:34:40;;;;;;;23.90;12.60;;;;;;;;;;5041073;28;20061;-69
2022/03/10 00:37:09;;;;;;;20.40;12.80;;;;;;;;;;5040384;28;20064;-68
2022/03/10 00:39:36;;;;;;;20.00;12.00;;;;;;;;;;5044565;28;20606;-68
2022/03/10 00:42:04;;;;;;;20.60;12.88;;;;;;;;;;5040739;28;20053;-68
2022/03/10 00:44:32;;;;;;;20.30;12.80;;;;;;;;;;5043947;28;20918;-68
2022/03/10 00:46:59;;;;;;;19.67;13.10;;;;;;;;;;5042844;28;20530;-69
2022/03/10 00:49:26;;;;;;;22.38;12.80;;;;;;;;;;5041161;28;20118;-68
2022/03/10 00:51:54;;;;;;;22.02;12.00;;;;;;;;;;5041050;28;20056;-69
2022/03/10 00:54:22;;;;;;;21.00;12.73;;;;;;;;;;5039445;28;20052;-68
2022/03/10 00:56:50;;;;;;;18.25;11.73;;;;;;;;;;5040273;28;20049;-68
2022/03/10 00:59:17;;;;;;;23.42;12.30;;;;;;;;;;5041976;28;20057;-68
2022/03/10 01:01:44;;;;;;;17.42;11.93;;;;;;;;;;5043496;28;21017;-69
2022/03/10 01:04:11;;;;;;;18.17;11.20;;;;;;;;;;5039330;28;20049;-68
2022/03/10 01:06:39;;;;;;;20.27;11.95;;;;;;;;;;5042929;28;20053;-69
2022/03/10 01:09:06;;;;;;;17.00;11.38;;;;;;;;;;5042238;28;20500;-68
2022/03/10 01:11:35;;;;;;;17.27;11.07;;;;;;;;;;5041182;28;20064;-69
2022/03/10 01:14:02;;;;;;;20.20;12.05;;;;;;;;;;5039687;28;20059;-68
2022/03/10 01:16:29;;;;;;;23.25;11.65;;;;;;;;;;5038231;28;20107;-69
2022/03/10 01:18:56;;;;;;;22.58;12.07;;;;;;;;;;5036790;28;20053;-68
2022/03/10 01:21:23;;;;;;;18.95;11.93;;;;;;;;;;5040371;28;20044;-68
2022/03/10 01:23:51;;;;;;;26.08;12.38;;;;;;;;;;5039647;28;20045;-68
2022/03/10 01:26:18;;;;;;;20.00;12.00;;;;;;;;;;5040958;28;20122;-68
2022/03/10 01:28:47;;;;;;;18.45;11.43;;;;;;;;;;5041160;28;20519;-68
2022/03/10 01:31:14;;;;;;;19.70;12.00;;;;;;;;;;5037901;28;20065;-68
2022/03/10 01:33:41;;;;;;;18.52;12.23;;;;;;;;;;5040578;28;20048;-69
2022/03/10 01:36:08;;;;;;;19.48;11.77;;;;;;;;;;5039214;28;20040;-69
2022/03/10 01:38:39;;;;;;;20.25;11.75;;;;;;;;;;5039609;28;20060;-68
2022/03/10 01:41:06;;;;;;;18.38;12.70;;;;;;;;;;5041636;28;20182;-68
2022/03/10 01:43:33;;;;;;;17.98;10.52;;;;;;;;;;5040303;28;20048;-68
2022/03/10 01:46:02;;;;;;;20.98;11.77;;;;;;;;;;5037460;28;20072;-68
2022/03/10 01:48:30;;;;;;;18.65;12.15;;;;;;;;;;5040362;28;20052;-68
2022/03/10 01:50:57;;;;;;;23.55;12.23;;;;;;;;;;5039679;28;20060;-68
2022/03/10 01:53:24;;;;;;;20.88;11.32;;;;;;;;;;5042073;28;20059;-68
2022/03/10 01:55:52;;;;;;;20.45;11.82;;;;;;;;;;5040920;28;20056;-68
2022/03/10 01:58:20;;;;;;;18.92;11.07;;;;;;;;;;5040420;28;20049;-69
2022/03/10 02:00:47;;;;;;;18.70;11.35;;;;;;;;;;5032060;28;20053;-68
2022/03/10 02:03:16;;;;;;;30.08;12.38;;;;;;;;;;5037328;28;20059;-68
2022/03/10 02:05:43;;;;;;;19.85;12.35;;;;;;;;;;5040487;28;20091;-69
2022/03/10 02:10:55;;;;;;;21.60;13.00;;;;;;;;;;5040561;28;20438;-68
2022/03/10 02:13:22;;;;;;;19.52;12.63;;;;;;;;;;5040688;28;20049;-68
2022/03/10 02:18:36;;;;;;;20.98;12.32;;;;;;;;;;5038762;28;20044;-68
2022/03/10 02:21:03;;;;;;;20.70;11.38;;;;;;;;;;5039711;28;20395;-68
2022/03/10 02:23:31;;;;;;;21.63;12.27;;;;;;;;;;5036103;28;20064;-68
2022/03/10 02:25:59;;;;;;;20.58;12.05;;;;;;;;;;5040488;28;20067;-68
2022/03/10 02:28:38;;;;;;;22.52;12.70;;;;;;;;;;5037896;28;20504;-68
2022/03/10 02:31:24;;;;;;;19.15;11.40;;;;;;;;;;5035850;28;20059;-68
2022/03/10 02:34:09;;;;;;;19.63;12.32;;;;;;;;;;5034771;28;20133;-68
2022/03/10 02:36:56;;;;;;;18.50;12.27;;;;;;;;;;5040496;28;20056;-73
2022/03/10 02:39:37;;;;;;;17.90;12.40;;;;;;;;;;5034219;28;20412;-68
2022/03/10 02:42:14;;;;;;;18.65;12.07;;;;;;;;;;5037076;28;20052;-68
2022/03/10 02:44:48;;;;;;;23.52;12.68;;;;;;;;;;5037023;28;20060;-68
2022/03/10 02:47:17;;;;;;;19.63;11.70;;;;;;;;;;5023951;28;20438;-68
2022/03/10 02:49:46;;;;;;;21.02;12.43;;;;;;;;;;5038086;28;20128;-72
2022/03/10 02:52:14;;;;;;;19.90;11.60;;;;;;;;;;5038959;28;20037;-68
2022/03/10 02:54:43;;;;;;;21.15;12.85;;;;;;;;;;5036787;28;20045;-68
2022/03/10 02:57:13;;;;;;;21.23;12.90;;;;;;;;;;5034778;28;20573;-68
2022/03/10 02:59:41;;;;;;;20.77;11.82;;;;;;;;;;5038894;28;20060;-68
2022/03/10 03:02:09;;;;;;;18.98;12.30;;;;;;;;;;5038081;28;20053;-68
2022/03/10 03:04:37;;;;;;;29.52;13.50;;;;;;;;;;5039275;28;20750;-69
2022/03/10 03:07:07;;;;;;;23.73;13.68;;;;;;;;;;5035041;28;20064;-68
2022/03/10 03:09:35;;;;;;;23.67;12.95;;;;;;;;;;5039161;28;20056;-68
2022/03/10 03:12:07;;;;;;;29.15;14.73;;;;;;;;;;5043060;28;20056;-68
2022/03/10 03:14:35;;;;;;;24.13;13.70;;;;;;;;;;5041286;28;20498;-69
2022/03/10 03:17:02;;;;;;;22.50;13.48;;;;;;;;;;5043597;28;20139;-68
2022/03/10 03:19:30;;;;;;;22.38;12.18;;;;;;;;;;5040203;28;20550;-68
2022/03/10 03:21:57;;;;;;;20.08;12.77;;;;;;;;;;5044295;28;20056;-68
2022/03/10 03:24:27;;;;;;;22.08;12.10;;;;;;;;;;5044790;28;20045;-68
2022/03/10 03:26:55;;;;;;;22.85;12.98;;;;;;;;;;5043623;28;21309;-68
2022/03/10 03:29:27;;;;;;;20.05;12.93;;;;;;;;;;5044605;28;20057;-68
2022/03/10 03:31:56;;;;;;;20.73;13.32;;;;;;;;;;5042551;28;20048;-69
2022/03/10 03:34:24;;;;;;;23.60;13.73;;;;;;;;;;5041206;28;20045;-68
2022/03/10 03:36:51;;;;;;;25.63;13.00;;;;;;;;;;5042979;28;20053;-69
2022/03/10 03:39:21;;;;;;;19.10;13.02;;;;;;;;;;5040230;28;20060;-68
2022/03/10 03:41:51;;;;;;;22.60;13.20;;;;;;;;;;5041320;28;20060;-68
2022/03/10 03:44:21;;;;;;;20.65;13.52;;;;;;;;;;5040315;28;20048;-68
2022/03/10 03:46:54;;;;;;;21.90;13.40;;;;;;;;;;5025759;28;20051;-68
2022/03/10 03:49:21;;;;;;;27.83;13.95;;;;;;;;;;5042005;28;20179;-68
2022/03/10 03:51:48;;;;;;;21.13;13.27;;;;;;;;;;5045585;28;20060;-68
2022/03/10 03:54:15;;;;;;;20.38;12.85;;;;;;;;;;5041109;28;20102;-68
2022/03/10 03:56:43;;;;;;;20.35;13.50;;;;;;;;;;5041148;28;20111;-68
2022/03/10 03:59:10;;;;;;;19.50;13.23;;;;;;;;;;5042320;28;20045;-68
2022/03/10 04:01:37;;;;;;;26.52;13.95;;;;;;;;;;5042205;28;20060;-68
2022/03/10 04:04:06;;;;;;;25.40;13.57;;;;;;;;;;5035478;28;21406;-68
2022/03/10 04:06:33;;;;;;;21.63;13.75;;;;;;;;;;5042266;28;20522;-68
2022/03/10 04:09:00;;;;;;;21.75;13.60;;;;;;;;;;5043604;28;20052;-68
2022/03/10 04:11:27;;;;;;;21.95;13.43;;;;;;;;;;5039690;28;20085;-68
2022/03/10 04:13:55;;;;;;;22.45;13.52;;;;;;;;;;5043073;28;20107;-67
2022/03/10 04:16:23;;;;;;;22.77;13.90;;;;;;;;;;5042663;28;20056;-68
2022/03/10 04:18:50;;;;;;;24.10;14.10;;;;;;;;;;5038294;28;20099;-68
2022/03/10 04:21:18;;;;;;;23.75;12.18;;;;;;;;;;5041634;28;20053;-68
2022/03/10 04:23:46;;;;;;;24.08;13.98;;;;;;;;;;5037077;28;20631;-68
2022/03/10 04:26:13;;;;;;;23.58;13.65;;;;;;;;;;5046061;28;20057;-68
2022/03/10 04:28:41;;;;;;;23.98;13.25;;;;;;;;;;5040839;28;20511;-68
2022/03/10 04:31:09;;;;;;;21.40;12.80;;;;;;;;;;5042913;28;20365;-68
2022/03/10 04:33:37;;;;;;;24.70;12.48;;;;;;;;;;5043654;28;20059;-68
2022/03/10 04:36:04;;;;;;;22.20;12.82;;;;;;;;;;5043654;28;20132;-68
2022/03/10 04:38:33;;;;;;;21.75;13.05;;;;;;;;;;5035681;28;20053;-68
2022/03/10 04:41:00;;;;;;;27.67;14.48;;;;;;;;;;5042353;28;20049;-68
2022/03/10 04:43:28;;;;;;;22.08;13.45;;;;;;;;;;5044225;28;20053;-68
2022/03/10 04:45:55;;;;;;;27.40;14.93;;;;;;;;;;5043716;28;20068;-69
2022/03/10 04:48:22;;;;;;;26.88;13.48;;;;;;;;;;5038505;28;20056;-68
2022/03/10 04:50:50;;;;;;;22.05;13.77;;;;;;;;;;5042693;28;20044;-68
2022/03/10 04:53:17;;;;;;;19.67;13.32;;;;;;;;;;5040898;28;20048;-68
2022/03/10 04:55:45;;;;;;;19.75;13.30;;;;;;;;;;5037734;28;20478;-68
2022/03/10 04:58:13;;;;;;;22.10;13.18;;;;;;;;;;5042880;28;20053;-68
2022/03/10 05:00:40;;;;;;;22.85;14.52;;;;;;;;;;5041714;28;20140;-68
2022/03/10 05:03:08;;;;;;;20.35;12.90;;;;;;;;;;5037408;28;20691;-69
2022/03/10 05:05:35;;;;;;;26.75;14.82;;;;;;;;;;5034076;28;20148;-68
2022/03/10 05:08:02;;;;;;;23.63;14.70;;;;;;;;;;5039181;28;20056;-68
2022/03/10 05:10:30;;;;;;;22.73;13.55;;;;;;;;;;5036800;28;20071;-68
2022/03/10 05:13:00;;;;;;;23.20;13.98;;;;;;;;;;5038026;28;20139;-68
2022/03/10 05:15:30;;;;;;;20.77;13.18;;;;;;;;;;5038037;28;20049;-68
2022/03/10 05:17:58;;;;;;;20.23;12.38;;;;;;;;;;5041931;28;20040;-69
2022/03/10 05:20:31;;;;;;;29.50;16.20;;;;;;;;;;5035745;28;20052;-68
2022/03/10 05:23:05;;;;;;;23.80;14.30;;;;;;;;;;5039664;28;20053;-68
2022/03/10 05:25:44;;;;;;;21.88;13.73;;;;;;;;;;5040254;28;20507;-68
2022/03/10 05:28:14;;;;;;;23.02;14.35;;;;;;;;;;5026284;28;20059;-68
2022/03/10 05:31:06;;;;;;;25.65;13.98;;;;;;;;;;5042937;28;20059;-68
2022/03/10 05:33:36;;;;;;;20.92;12.88;;;;;;;;;;5040602;28;20051;-68
2022/03/10 05:36:24;;;;;;;22.95;13.55;;;;;;;;;;5038549;28;20053;-68
2022/03/10 05:38:56;;;;;;;24.67;14.20;;;;;;;;;;5035225;28;20172;-68
2022/03/10 05:41:30;;;;;;;24.52;13.35;;;;;;;;;;5019156;28;21100;-68
2022/03/10 05:44:00;;;;;;;22.88;14.35;;;;;;;;;;5021941;28;20053;-68
2022/03/10 05:46:35;;;;;;;26.65;14.75;;;;;;;;;;5033733;28;20052;-68
2022/03/10 05:49:06;;;;;;;22.60;13.75;;;;;;;;;;5017481;28;20059;-68
2022/03/10 05:51:35;;;;;;;26.20;14.45;;;;;;;;;;5035215;28;20102;-68
2022/03/10 05:54:04;;;;;;;25.52;13.10;;;;;;;;;;5034837;28;20056;-68
2022/03/10 05:56:32;;;;;;;22.17;13.00;;;;;;;;;;5038606;28;20044;-68
2022/03/10 05:59:01;;;;;;;30.42;16.00;;;;;;;;;;5037743;28;20068;-67
2022/03/10 06:01:28;;;;;;;29.38;15.73;;;;;;;;;;5028416;28;20063;-68
2022/03/10 06:03:56;;;;;;;25.83;15.70;;;;;;;;;;5032906;28;20052;-68
2022/03/10 06:06:24;;;;;;;26.00;14.18;;;;;;;;;;5027128;28;20056;-68
2022/03/10 06:08:51;;;;;;;25.45;13.55;;;;;;;;;;5027221;28;20064;-69
2022/03/10 06:11:18;;;;;;;24.52;14.27;;;;;;;;;;5029010;28;20052;-68
2022/03/10 06:13:45;;;;;;;23.48;13.45;;;;;;;;;;5031593;28;20049;-68
2022/03/10 06:16:14;;;;;;;26.23;14.85;;;;;;;;;;5032722;28;20178;-69
2022/03/10 06:18:41;;;;;;;22.75;14.35;;;;;;;;;;5032217;28;20132;-68
2022/03/10 06:21:11;;;;;;;25.08;15.93;;;;;;;;;;5030997;28;20582;-68
2022/03/10 06:23:41;;;;;;;25.40;14.90;;;;;;;;;;5031601;28;20099;-68
2022/03/10 06:26:09;;;;;;;25.15;14.00;;;;;;;;;;5030320;28;20041;-68
2022/03/10 06:28:36;;;;;;;24.50;14.55;;;;;;;;;;5031866;28;20053;-68
2022/03/10 06:31:04;;;;;;;28.15;15.07;;;;;;;;;;5032021;28;20809;-68
2022/03/10 06:33:32;;;;;;;25.42;15.15;;;;;;;;;;5034205;28;20053;-68
2022/03/10 06:36:00;;;;;;;27.67;14.65;;;;;;;;;;5036589;28;20057;-68
2022/03/10 06:38:27;;;;;;;24.77;14.90;;;;;;;;;;5034887;28;20515;-68
2022/03/10 06:40:54;;;;;;;33.13;15.02;;;;;;;;;;5035055;28;20107;-68
2022/03/10 06:43:21;;;;;;;23.23;14.77;;;;;;;;;;5034868;28;20083;-68
2022/03/10 06:45:49;;;;;;;28.33;15.18;;;;;;;;;;5038478;28;20053;-68
2022/03/10 06:48:16;;;;;;;21.27;13.85;;;;;;;;;;5042467;28;20500;-68
2022/03/10 06:50:47;;;;;;;25.38;14.85;;;;;;;;;;5040902;28;20053;-68
2022/03/10 06:53:14;;;;;;;25.30;14.70;;;;;;;;;;5039611;28;20061;-68
2022/03/10 06:55:42;;;;;;;25.55;14.50;;;;;;;;;;5039111;28;20060;-68
2022/03/10 06:58:09;;;;;;;23.13;13.32;;;;;;;;;;5037967;28;20068;-68
2022/03/10 07:00:36;;;;;;;26.20;14.52;;;;;;;;;;5039730;28;20518;-68
2022/03/10 07:03:04;;;;;;;24.33;14.00;;;;;;;;;;5037398;28;20060;-68
2022/03/10 07:05:31;;;;;;;24.05;14.88;;;;;;;;;;5040876;28;20067;-68
2022/03/10 07:08:00;;;;;;;26.42;14.85;;;;;;;;;;5041419;28;20064;-68
2022/03/10 07:10:29;;;;;;;26.38;13.98;;;;;;;;;;5045444;28;20190;-68
2022/03/10 07:12:57;;;;;;;23.30;14.93;;;;;;;;;;5040893;28;20118;-68
2022/03/10 07:15:24;;;;;;;23.80;14.57;;;;;;;;;;5045084;28;20057;-68
2022/03/10 07:17:51;;;;;;;27.00;15.23;;;;;;;;;;5048472;28;20049;-69
2022/03/10 07:20:18;;;;;;;24.83;15.02;;;;;;;;;;5048167;28;20446;-68
2022/03/10 07:22:52;;;;;;;26.95;15.00;;;;;;;;;;5046209;28;20120;-71
2022/03/10 07:25:21;;;;;;;30.15;14.13;;;;;;;;;;5045527;28;20487;-68
2022/03/10 07:27:48;;;;;;;23.90;14.10;;;;;;;;;;5044939;28;20052;-68
2022/03/10 07:30:15;;;;;;;24.40;14.60;;;;;;;;;;5036355;28;20061;-68
2022/03/10 07:32:45;;;;;;;26.25;14.93;;;;;;;;;;5042983;28;20053;-68
2022/03/10 07:35:13;;;;;;;26.77;15.10;;;;;;;;;;5044336;28;20041;-68
2022/03/10 07:37:41;;;;;;;21.73;13.70;;;;;;;;;;5045618;28;20055;-68
2022/03/10 07:40:09;;;;;;;22.85;13.68;;;;;;;;;;5042027;28;20049;-68
2022/03/10 07:42:37;;;;;;;27.38;13.77;;;;;;;;;;5042087;28;20491;-68
2022/03/10 07:45:05;;;;;;;25.17;14.93;;;;;;;;;;5046495;28;20048;-68
2022/03/10 07:47:32;;;;;;;27.67;14.02;;;;;;;;;;5039068;28;20171;-68
2022/03/10 07:49:59;;;;;;;22.38;14.32;;;;;;;;;;5042162;28;20060;-68
2022/03/10 07:52:27;;;;;;;31.25;14.15;;;;;;;;;;5041467;28;20057;-68
2022/03/10 07:54:54;;;;;;;24.42;14.60;;;;;;;;;;5041733;28;20684;-68
2022/03/10 07:57:21;;;;;;;22.90;14.38;;;;;;;;;;5038050;28;20060;-68
2022/03/10 07:59:50;;;;;;;25.15;14.10;;;;;;;;;;5045277;28;20052;-68
2022/03/10 08:02:17;;;;;;;21.60;13.70;;;;;;;;;;5041219;28;20045;-68
2022/03/10 08:04:45;;;;;;;26.30;15.27;;;;;;;;;;5042755;28;20495;-69
2022/03/10 08:07:12;;;;;;;26.95;14.65;;;;;;;;;;5043891;28;20072;-68
2022/03/10 08:09:39;;;;;;;23.80;14.30;;;;;;;;;;5041558;28;20527;-68
2022/03/10 08:12:07;;;;;;;24.88;14.55;;;;;;;;;;5044222;28;20052;-68
2022/03/10 08:14:35;;;;;;;29.80;14.43;;;;;;;;;;5040085;28;20136;-68
2022/03/10 08:17:04;;;;;;;26.50;14.48;;;;;;;;;;5045980;28;20057;-68
2022/03/10 08:19:34;;;;;;;25.70;13.98;;;;;;;;;;5046378;28;20135;-68
2022/03/10 08:22:06;;;;;;;24.52;14.05;;;;;;;;;;5044799;28;20064;-68
2022/03/10 08:24:36;;;;;;;25.25;14.52;;;;;;;;;;5044207;28;20057;-68
2022/03/10 08:27:04;;;;;;;22.70;14.30;;;;;;;;;;5045698;28;20139;-68
2022/03/10 08:29:34;;;;;;;25.25;14.82;;;;;;;;;;5038740;28;20096;-68
2022/03/10 08:32:03;;;;;;;28.70;14.40;;;;;;;;;;5045219;28;20049;-68
2022/03/10 08:34:31;;;;;;;23.70;14.32;;;;;;;;;;5035547;28;20613;-68
2022/03/10 08:36:59;;;;;;;21.63;14.27;;;;;;;;;;5039954;28;20110;-68
2022/03/10 08:39:26;;;;;;;25.50;14.65;;;;;;;;;;5035144;28;20041;-68
2022/03/10 08:41:53;;;;;;;25.20;14.40;;;;;;;;;;5044598;28;20122;-69
2022/03/10 08:44:21;;;;;;;25.10;14.40;;;;;;;;;;5041967;28;20135;-68
2022/03/10 08:46:51;;;;;;;25.33;14.57;;;;;;;;;;5042824;28;20041;-68
2022/03/10 08:49:19;;;;;;;22.30;14.05;;;;;;;;;;5042330;28;20045;-68
2022/03/10 08:51:48;;;;;;;22.10;14.23;;;;;;;;;;5039250;28;20362;-68
2022/03/10 08:54:18;;;;;;;25.88;14.43;;;;;;;;;;5041873;28;20052;-68
2022/03/10 08:56:45;;;;;;;24.67;14.27;;;;;;;;;;5040477;28;20415;-69
2022/03/10 08:59:13;;;;;;;23.63;13.85;;;;;;;;;;5043654;28;20101;-69
2022/03/10 09:01:40;;;;;;;27.55;13.80;;;;;;;;;;5045999;28;20048;-69
2022/03/10 09:04:07;;;;;;;25.13;14.55;;;;;;;;;;5046616;28;20049;-68
2022/03/10 09:06:36;;;;;;;29.27;14.77;;;;;;;;;;5039441;28;20114;-68
2022/03/10 09:09:03;;;;;;;31.90;14.55;;;;;;;;;;5044394;28;20049;-68
2022/03/10 09:11:30;;;;;;;25.15;15.20;;;;;;;;;;5043907;28;20157;-68
2022/03/10 09:13:59;;;;;;;24.50;15.45;;;;;;;;;;5042696;28;20047;-68
2022/03/10 09:16:27;;;;;;;28.63;14.90;;;;;;;;;;5039376;28;20454;-68
2022/03/10 09:18:54;;;;;;;24.35;14.55;;;;;;;;;;5040518;28;20052;-69
2022/03/10 09:21:21;;;;;;;25.63;14.85;;;;;;;;;;5042404;28;20068;-69
2022/03/10 09:23:50;;;;;;;24.80;15.00;;;;;;;;;;5039964;28;20047;-69
2022/03/10 09:26:17;;;;;;;23.70;14.43;;;;;;;;;;5039812;28;20049;-68
2022/03/10 09:28:45;;;;;;;24.23;14.32;;;;;;;;;;5038065;28;20404;-69
2022/03/10 09:31:12;;;;;;;29.50;15.63;;;;;;;;;;5038526;28;20052;-69
2022/03/10 09:33:40;;;;;;;28.98;15.75;;;;;;;;;;5039718;28;20060;-68
2022/03/10 09:36:07;;;;;;;26.17;15.50;;;;;;;;;;5042762;28;20099;-69
2022/03/10 09:38:34;;;;;;;25.70;14.82;;;;;;;;;;5041439;28;20068;-69
2022/03/10 09:41:03;;;;;;;24.08;15.68;;;;;;;;;;5044502;28;20053;-69
2022/03/10 09:43:31;;;;;;;24.98;14.95;;;;;;;;;;5041063;28;20076;-69
2022/03/10 09:45:59;;;;;;;28.77;15.05;;;;;;;;;;5037365;28;20076;-69
2022/03/10 09:48:28;;;;;;;23.17;15.18;;;;;;;;;;5040227;28;20079;-69
2022/03/10 09:50:56;;;;;;;25.00;14.77;;;;;;;;;;5040181;28;20061;-69
2022/03/10 09:53:23;;;;;;;31.42;17.65;;;;;;;;;;5040591;28;20044;-68
2022/03/10 09:55:50;;;;;;;26.00;16.20;;;;;;;;;;5039843;28;20431;-69
2022/03/10 09:58:19;;;;;;;28.15;16.00;;;;;;;;;;5040360;28;20555;-69
2022/03/10 10:00:46;;;;;;;27.42;15.32;;;;;;;;;;5039204;28;20068;-68
2022/03/10 10:03:13;;;;;;;23.15;14.63;;;;;;;;;;5039742;28;20049;-68
2022/03/10 10:05:41;;;;;;;27.25;15.07;;;;;;;;;;5038172;28;20119;-68
2022/03/10 10:08:09;;;;;;;30.27;16.20;;;;;;;;;;5044657;28;20056;-68
2022/03/10 10:10:39;;;;;;;24.95;15.40;;;;;;;;;;5041688;28;20048;-68
2022/03/10 10:13:07;;;;;;;28.50;16.98;;;;;;;;;;5032650;28;20057;-68
2022/03/10 10:15:39;;;;;;;24.05;15.55;;;;;;;;;;5043121;28;21380;-68
2022/03/10 10:18:07;;;;;;;25.63;15.45;;;;;;;;;;5041607;28;20060;-68
2022/03/10 10:20:34;;;;;;;25.52;15.25;;;;;;;;;;5041785;28;20543;-69
2022/03/10 10:23:18;;;;;;;26.15;15.88;;;;;;;;;;5038658;28;20056;-68
2022/03/10 10:25:45;;;;;;;;;;;;;;;;;;5044871;28;20103;-69
2022/03/10 10:28:22;;;;;;;25.27;15.75;;;;;;;;;;5036119;28;20375;-69
2022/03/10 10:30:56;;;;;;;31.83;16.40;;;;;;;;;;5042794;28;20088;-69
2022/03/10 10:33:24;;;;;;;26.33;15.90;;;;;;;;;;5043076;28;20473;-69
2022/03/10 10:35:52;;;;;;;27.23;16.85;;;;;;;;;;5040883;28;20148;-68
2022/03/10 10:38:29;;;;;;;25.92;16.73;;;;;;;;;;5042161;28;20064;-69
2022/03/10 10:41:11;;;;;;;29.10;17.88;;;;;;;;;;5039088;28;20080;-69
2022/03/10 10:43:41;;;;;;;27.33;17.77;;;;;;;;;;5039543;28;20122;-69
2022/03/10 10:46:10;;;;;;;30.33;18.08;;;;;;;;;;5044737;28;20052;-69
2022/03/10 10:48:47;;;;;;;30.48;18.40;;;;;;;;;;5042277;28;20396;-68
2022/03/10 10:51:15;;;;;;;29.25;17.67;;;;;;;;;;5047507;28;20071;-69
2022/03/10 10:53:42;;;;;;;30.13;17.77;;;;;;;;;;5040325;28;20084;-69
2022/03/10 10:56:09;;;;;;;26.67;17.05;;;;;;;;;;5041267;28;20538;-69
2022/03/10 10:58:39;;;;;;;33.88;18.00;;;;;;;;;;5035321;28;20068;-69
2022/03/10 11:01:07;;;;;;;27.25;17.95;;;;;;;;;;5037264;28;20060;-69
2022/03/10 11:03:37;;;;;;;29.08;19.00;;;;;;;;;;5035305;28;20060;-69
2022/03/10 11:06:04;;;;;;;27.80;18.05;;;;;;;;;;5034055;28;20132;-68
2022/03/10 11:08:31;;;;;;;32.33;18.98;;;;;;;;;;5037764;28;20610;-68
2022/03/10 11:10:58;;;;;;;30.70;18.52;;;;;;;;;;5037262;28;20063;-68
2022/03/10 11:13:26;;;;;;;29.80;17.40;;;;;;;;;;5036435;28;20160;-68
2022/03/10 11:15:54;;;;;;;32.72;18.77;;;;;;;;;;5039224;28;20103;-68
2022/03/10 11:18:22;;;;;;;30.38;18.05;;;;;;;;;;5039185;28;20055;-69
2022/03/10 11:21:01;;;;;;;31.90;18.48;;;;;;;;;;5037846;28;20041;-68
2022/03/10 11:23:34;;;;;;;42.40;19.42;;;;;;;;;;5038500;28;20049;-69
2022/03/10 11:26:06;;;;;;;31.77;18.20;;;;;;;;;;5047791;28;20064;-68
2022/03/10 11:28:34;;;;;;;28.85;18.17;;;;;;;;;;5046660;28;20057;-68
2022/03/10 11:31:04;;;;;;;29.92;19.20;;;;;;;;;;5048867;28;20442;-68
2022/03/10 11:33:32;;;;;;;32.58;18.65;;;;;;;;;;5051235;28;20071;-69
2022/03/10 11:36:01;;;;;;;30.25;18.45;;;;;;;;;;5048123;28;20060;-68
2022/03/10 11:38:33;;;;;;;28.15;18.17;;;;;;;;;;5053330;28;20056;-69
2022/03/10 11:41:00;;;;;;;30.65;17.98;;;;;;;;;;5046842;28;20570;-69
2022/03/10 11:43:32;;;;;;;30.45;18.70;;;;;;;;;;5048124;28;20045;-69
2022/03/10 11:46:18;;;;;;;30.60;17.75;;;;;;;;;;5049499;28;20063;-69
2022/03/10 11:49:00;;;;;;;28.17;17.95;;;;;;;;;;5047782;28;20051;-68
2022/03/10 11:51:43;;;;;;;28.88;18.05;;;;;;;;;;5043645;28;20061;-69
2022/03/10 11:54:11;;;;;;;30.58;18.70;;;;;;;;;;5050239;28;20424;-69
2022/03/10 11:57:09;;;;;;;28.95;18.55;;;;;;;;;;5044027;28;20040;-69
2022/03/10 11:59:49;;;;;;;29.75;19.48;;;;;;;;;;5041143;28;20136;-69
2022/03/10 12:02:35;;;;;;;28.17;18.10;;;;;;;;;;5044032;28;20536;-69
2022/03/10 12:05:03;;;;;;;31.27;19.90;;;;;;;;;;5035532;28;20065;-69
2022/03/10 12:07:35;;;;;;;32.83;19.33;;;;;;;;;;5045565;28;20060;-69
2022/03/10 12:10:04;;;;;;;32.00;19.73;;;;;;;;;;5046736;28;20056;-69
2022/03/10 12:12:36;;;;;;;31.95;18.98;;;;;;;;;;5045193;28;20057;-68
2022/03/10 12:15:18;;;;;;;28.58;19.30;;;;;;;;;;5047503;28;20052;-68
2022/03/10 12:17:52;;;;;;;28.48;19.27;;;;;;;;;;5045536;28;20044;-69
2022/03/10 12:20:20;;;;;;;31.13;19.58;;;;;;;;;;5047395;28;20160;-69
2022/03/10 12:23:02;;;;;;;30.95;19.65;;;;;;;;;;5046039;28;20060;-69
2022/03/10 12:25:32;;;;;;;29.30;19.63;;;;;;;;;;5045178;28;20057;-69
2022/03/10 12:27:59;;;;;;;30.00;19.60;;;;;;;;;;5042079;28;20057;-69
2022/03/10 12:30:27;;;;;;;29.00;19.30;;;;;;;;;;5045733;28;20673;-69
2022/03/10 12:32:56;;;;;;;28.05;19.98;;;;;;;;;;5047962;28;20461;-69
2022/03/10 12:35:27;;;;;;;28.40;19.83;;;;;;;;;;5038787;28;20075;-69
2022/03/10 12:37:55;;;;;;;31.42;20.25;;;;;;;;;;5045121;28;20434;-69
2022/03/10 12:40:23;;;;;;;28.20;19.38;;;;;;;;;;5047598;28;20056;-70
2022/03/10 12:43:00;;;;;;;27.80;19.95;;;;;;;;;;5042649;28;20045;-69
2022/03/10 12:45:27;;;;;;;28.40;19.90;;;;;;;;;;5042736;28;20049;-69
2022/03/10 12:47:56;;;;;;;27.63;18.92;;;;;;;;;;5043114;28;20148;-69
2022/03/10 12:50:24;;;;;;;29.48;19.77;;;;;;;;;;5044713;28;20072;-69
2022/03/10 12:52:51;;;;;;;27.27;19.30;;;;;;;;;;5046062;28;20053;-69
2022/03/10 12:55:26;;;;;;;28.35;19.13;;;;;;;;;;5045549;28;20057;-69
2022/03/10 12:57:59;;;;;;;25.27;18.27;;;;;;;;;;5043867;28;20049;-70
2022/03/10 13:00:26;;;;;;;;;;;;;;;;;;5043499;28;20479;-69
2022/03/10 13:02:56;;;;;;;30.10;18.90;;;;;;;;;;5042185;28;19924;-69
2022/03/10 13:05:24;;;;;;;28.75;18.65;;;;;;;;;;5044185;28;20976;-69
2022/03/10 13:07:51;;;;;;;29.25;20.33;;;;;;;;;;5046048;28;20063;-70
2022/03/10 13:10:20;;;;;;;31.85;20.67;;;;;;;;;;5042281;28;20041;-70
2022/03/10 13:12:49;;;;;;;30.48;20.77;;;;;;;;;;5042125;28;20067;-69
2022/03/10 13:15:22;;;;;;;27.85;19.30;;;;;;;;;;5042147;28;20057;-70
2022/03/10 13:17:50;;;;;;;30.05;19.48;;;;;;;;;;5046537;28;20566;-69
2022/03/10 13:20:19;;;;;;;26.98;19.27;;;;;;;;;;5045654;28;20069;-69
2022/03/10 13:22:47;;;;;;;26.23;19.40;;;;;;;;;;5046589;28;20190;-69
2022/03/10 13:25:16;;;;;;;28.27;19.45;;;;;;;;;;5051733;28;20055;-69
2022/03/10 13:27:43;;;;;;;26.83;19.98;;;;;;;;;;5044608;28;20048;-69
2022/03/10 13:30:17;;;;;;;25.88;18.85;;;;;;;;;;5044237;28;20130;-70
2022/03/10 13:32:47;;;;;;;34.60;20.50;;;;;;;;;;5044381;28;20114;-70
2022/03/10 13:35:15;;;;;;;24.73;18.30;;;;;;;;;;5043812;28;20138;-69
2022/03/10 13:37:44;;;;;;;27.10;20.00;;;;;;;;;;5045543;28;20055;-69
2022/03/10 13:40:16;;;;;;;31.70;19.95;;;;;;;;;;5045678;28;20045;-70
2022/03/10 13:42:46;;;;;;;26.35;18.30;;;;;;;;;;5039472;28;20053;-70
2022/03/10 13:45:14;;;;;;;27.02;19.30;;;;;;;;;;5043821;28;20052;-70
2022/03/10 13:47:56;;;;;;;26.83;19.27;;;;;;;;;;5044287;28;20055;-70
2022/03/10 13:50:25;;;;;;;25.38;18.05;;;;;;;;;;5041372;28;20049;-70
2022/03/10 13:52:54;;;;;;;26.10;19.10;;;;;;;;;;5044041;28;20111;-70
2022/03/10 13:55:28;;;;;;;22.52;16.85;;;;;;;;;;5043092;28;20077;-69
2022/03/10 13:57:59;;;;;;;23.42;17.02;;;;;;;;;;5041323;28;20126;-70
2022/03/10 14:00:27;;;;;;;23.17;16.83;;;;;;;;;;5044216;28;20071;-69
2022/03/10 14:02:56;;;;;;;23.40;17.33;;;;;;;;;;5044340;28;20079;-70
2022/03/10 14:05:23;;;;;;;25.48;18.75;;;;;;;;;;5044427;28;20068;-70
2022/03/10 14:08:11;;;;;;;23.20;17.60;;;;;;;;;;5045136;28;20449;-70
2022/03/10 14:10:39;;;;;;;23.23;16.55;;;;;;;;;;5042359;28;20169;-70
2022/03/10 14:13:06;;;;;;;21.33;16.20;;;;;;;;;;5042983;28;20056;-70
2022/03/10 14:15:35;;;;;;;21.98;16.00;;;;;;;;;;5043641;28;20056;-70
2022/03/10 14:18:07;;;;;;;23.15;16.70;;;;;;;;;;5041536;28;20080;-69
2022/03/10 14:20:44;;;;;;;24.38;17.00;;;;;;;;;;5040915;28;20060;-70
2022/03/10 14:23:13;;;;;;;22.23;16.48;;;;;;;;;;5043990;28;20049;-70
2022/03/10 14:25:45;;;;;;;22.40;16.33;;;;;;;;;;5044385;28;20098;-70
2022/03/10 14:28:13;;;;;;;24.55;17.20;;;;;;;;;;5043539;28;20045;-69
2022/03/10 14:30:40;;;;;;;26.80;17.38;;;;;;;;;;5043773;28;20056;-70
2022/03/10 14:33:09;;;;;;;21.45;16.83;;;;;;;;;;5043925;28;20056;-70
2022/03/10 14:35:37;;;;;;;30.52;17.10;;;;;;;;;;5041925;28;20056;-70